createdAt,value
2024-05-09T08:28:58.720Z,60.45
2024-05-09T08:31:26.217Z,62.95
2024-05-09T08:33:55.266Z,50.65
2024-05-09T08:36:22.626Z,49.47
2024-05-09T08:38:49.938Z,53.15
2024-05-09T08:41:17.213Z,50.42
2024-05-09T08:43:45.265Z,51.92
2024-05-09T08:46:14.230Z,47.17
2024-05-09T08:48:43.339Z,44.42
2024-05-09T08:51:10.814Z,47.75
2024-05-09T08:53:38.057Z,46.33
2024-05-09T08:56:05.420Z,47.40
2024-05-09T08:58:32.684Z,50.78
2024-05-09T09:01:00.256Z,48.72
2024-05-09T09:03:28.223Z,48.35
2024-05-09T09:06:09.228Z,50.42
2024-05-09T09:08:37.256Z,46.97
2024-05-09T09:11:04.625Z,48.85
2024-05-09T09:13:31.861Z,50.03
2024-05-09T09:15:59.936Z,49.08
2024-05-09T09:18:27.776Z,51.47
2024-05-09T09:20:55.634Z,47.25
2024-05-09T09:23:23.058Z,49.15
2024-05-09T09:25:50.712Z,48.08
2024-05-09T09:28:18.247Z,48.00
2024-05-09T09:30:46.278Z,50.13
2024-05-09T09:33:13.904Z,47.30
2024-05-09T09:35:41.291Z,44.47
2024-05-09T09:38:10.262Z,45.00
2024-05-09T09:40:42.866Z,42.55
2024-05-09T09:43:23.758Z,39.40
2024-05-09T09:45:52.220Z,35.95
2024-05-09T09:48:20.583Z,37.05
2024-05-09T09:50:48.115Z,37.92
2024-05-09T09:53:15.352Z,39.40
2024-05-09T09:55:43.522Z,38.88
2024-05-09T09:58:13.493Z,39.90
2024-05-09T10:00:42.161Z,38.67
2024-05-09T10:03:09.859Z,37.08
2024-05-09T10:05:37.533Z,36.58
2024-05-09T10:08:06.041Z,35.53
2024-05-09T10:10:34.014Z,36.13
2024-05-09T10:13:04.758Z,35.65
2024-05-09T10:15:52.826Z,38.75
2024-05-09T10:18:27.113Z,43.25
2024-05-09T10:20:56.684Z,39.28
2024-05-09T10:23:30.405Z,41.38
2024-05-09T10:26:01.231Z,38.70
2024-05-09T10:28:29.011Z,36.05
2024-05-09T10:31:11.845Z,38.28
2024-05-09T10:33:49.951Z,39.22
2024-05-09T10:36:21.350Z,34.78
2024-05-09T10:38:52.348Z,33.80
2024-05-09T10:41:19.890Z,36.92
2024-05-09T10:43:47.558Z,34.42
2024-05-09T10:46:15.098Z,33.50
2024-05-09T10:48:43.160Z,34.83
2024-05-09T10:51:10.606Z,37.05
2024-05-09T10:53:41.488Z,39.83
2024-05-09T10:56:09.125Z,38.80
2024-05-09T10:58:36.474Z,38.47
2024-05-09T11:01:06.758Z,39.22
2024-05-09T11:03:35.363Z,35.72
2024-05-09T11:06:03.014Z,40.72
2024-05-09T11:08:30.284Z,38.72
2024-05-09T11:10:59.345Z,35.72
2024-05-09T11:13:44.818Z,37.03
2024-05-09T11:16:21.952Z,33.15
2024-05-09T11:18:56.292Z,36.90
2024-05-09T11:21:24.425Z,37.95
2024-05-09T11:23:51.689Z,35.88
2024-05-09T11:26:19.696Z,32.20
2024-05-09T11:28:46.946Z,35.53
2024-05-09T11:31:14.273Z,36.03
2024-05-09T11:33:42.888Z,29.33
2024-05-09T11:36:10.489Z,36.33
2024-05-09T11:38:37.788Z,35.35
2024-05-09T11:41:05.742Z,36.95
2024-05-09T11:43:33.254Z,33.45
2024-05-09T11:46:00.841Z,32.20
2024-05-09T11:48:28.410Z,31.55
2024-05-09T11:50:55.912Z,32.03
2024-05-09T11:53:23.189Z,32.42
2024-05-09T11:55:50.579Z,30.63
2024-05-09T11:58:18.906Z,32.55
2024-05-09T12:00:47.306Z,36.90
2024-05-09T12:03:15.001Z,31.48
2024-05-09T12:05:42.585Z,32.80
2024-05-09T12:08:10.103Z,32.33
2024-05-09T12:10:37.680Z,32.22
2024-05-09T12:13:06.811Z,31.10
2024-05-09T12:15:37.432Z,28.60
2024-05-09T12:18:06.037Z,31.17
2024-05-09T12:20:37.673Z,25.60
2024-05-09T12:23:07.647Z,29.15
2024-05-09T12:25:35.541Z,29.05
2024-05-09T12:28:02.922Z,24.73
2024-05-09T12:30:36.658Z,29.60
2024-05-09T12:33:08.601Z,27.85
2024-05-09T12:35:36.320Z,29.98
2024-05-09T12:38:03.585Z,25.95
2024-05-09T12:40:35.881Z,32.83
2024-05-09T12:43:05.946Z,29.63
2024-05-09T12:45:33.585Z,31.95
2024-05-09T12:48:01.130Z,24.63
2024-05-09T12:50:32.883Z,30.60
2024-05-09T12:53:02.347Z,31.58
2024-05-09T12:55:36.622Z,31.75
2024-05-09T12:58:09.000Z,31.30
2024-05-09T13:00:36.544Z,29.80
2024-05-09T13:03:03.943Z,28.80
2024-05-09T13:05:32.157Z,29.95
2024-05-09T13:08:00.570Z,29.30
2024-05-09T13:10:32.192Z,28.20
2024-05-09T13:13:01.505Z,30.05
2024-05-09T13:15:30.076Z,28.92
2024-05-09T13:18:02.866Z,28.10
2024-05-09T13:20:34.080Z,28.13
2024-05-09T13:23:03.617Z,27.80
2024-05-09T13:25:30.886Z,27.70
2024-05-09T13:27:58.376Z,26.85
2024-05-09T13:30:30.250Z,30.70
2024-05-09T13:33:07.015Z,28.00
2024-05-09T13:35:35.756Z,27.05
2024-05-09T13:38:04.497Z,29.75
2024-05-09T13:40:34.964Z,27.83
2024-05-09T13:43:07.037Z,24.52
2024-05-09T13:45:34.594Z,28.58
2024-05-09T13:48:03.702Z,27.60
2024-05-09T13:50:35.254Z,25.98
2024-05-09T13:53:06.010Z,23.50
2024-05-09T13:55:35.178Z,22.67
2024-05-09T13:58:02.822Z,21.05
2024-05-09T14:00:42.125Z,25.17
2024-05-09T14:03:16.025Z,22.27
2024-05-09T14:05:44.212Z,22.73
2024-05-09T14:08:11.809Z,23.00
2024-05-09T14:10:44.545Z,25.77
2024-05-09T14:13:12.681Z,24.83
2024-05-09T14:15:40.373Z,31.25
2024-05-09T14:18:11.521Z,23.27
2024-05-09T14:20:41.056Z,25.38
2024-05-09T14:23:08.358Z,23.85
2024-05-09T14:25:39.047Z,22.85
2024-05-09T14:28:09.156Z,27.77
2024-05-09T14:30:38.194Z,24.50
2024-05-09T14:33:07.564Z,28.75
2024-05-09T14:35:37.273Z,26.75
2024-05-09T14:38:04.819Z,23.73
2024-05-09T14:40:40.659Z,24.30
2024-05-09T14:43:11.467Z,25.80
2024-05-09T14:45:39.026Z,25.75
2024-05-09T14:48:07.071Z,25.63
2024-05-09T14:50:37.939Z,23.58
2024-05-09T14:53:07.688Z,24.55
2024-05-09T14:55:37.199Z,26.17
2024-05-09T14:58:08.645Z,23.35
2024-05-09T15:00:44.480Z,25.23
2024-05-09T15:03:15.684Z,23.63
2024-05-09T15:05:43.126Z,24.55
2024-05-09T15:08:11.296Z,26.55
2024-05-09T15:10:39.092Z,29.08
2024-05-09T15:13:08.724Z,25.88
2024-05-09T15:15:37.495Z,31.13
2024-05-09T15:18:05.686Z,28.23
2024-05-09T15:20:36.208Z,28.20
2024-05-09T15:23:06.049Z,30.73
2024-05-09T15:25:34.271Z,32.22
2024-05-09T15:28:02.566Z,29.27
2024-05-09T15:30:32.691Z,32.65
2024-05-09T15:33:04.011Z,30.65
2024-05-09T15:35:32.590Z,35.63
2024-05-09T15:37:59.982Z,36.70
2024-05-09T15:40:36.083Z,36.03
2024-05-09T15:43:07.645Z,33.33
2024-05-09T15:45:35.597Z,32.13
2024-05-09T15:48:03.683Z,32.05
2024-05-09T15:50:37.970Z,32.70
2024-05-09T15:53:09.169Z,33.33
2024-05-09T15:55:37.203Z,33.42
2024-05-09T15:58:05.173Z,37.83
2024-05-09T16:00:38.596Z,37.78
2024-05-09T16:03:09.923Z,39.03
2024-05-09T16:05:38.078Z,34.03
2024-05-09T16:08:05.814Z,32.97
2024-05-09T16:10:34.608Z,37.10
2024-05-09T16:13:03.447Z,31.73
2024-05-09T16:15:31.601Z,40.03
2024-05-09T16:17:59.275Z,35.65
2024-05-09T16:20:35.013Z,35.33
2024-05-09T16:23:07.198Z,33.67
2024-05-09T16:25:35.332Z,35.15
2024-05-09T16:28:05.774Z,32.58
2024-05-09T16:30:36.318Z,35.75
2024-05-09T16:33:05.141Z,30.90
2024-05-09T16:35:34.426Z,36.80
2024-05-09T16:38:02.472Z,47.63
2024-05-09T16:40:37.011Z,37.33
2024-05-09T16:43:08.702Z,32.92
2024-05-09T16:45:36.757Z,35.63
2024-05-09T16:48:04.649Z,28.75
2024-05-09T16:50:35.046Z,29.15
2024-05-09T16:53:04.401Z,32.83
2024-05-09T16:55:32.261Z,28.38
2024-05-09T16:57:59.650Z,32.63
2024-05-09T17:00:37.894Z,33.00
2024-05-09T17:03:09.989Z,32.05
2024-05-09T17:05:38.300Z,33.45
2024-05-09T17:08:06.134Z,34.58
2024-05-09T17:10:35.218Z,29.98
2024-05-09T17:13:04.281Z,31.05
2024-05-09T17:15:33.263Z,33.65
2024-05-09T17:18:00.883Z,32.80
2024-05-09T17:20:33.250Z,30.98
2024-05-09T17:23:03.407Z,30.10
2024-05-09T17:25:30.741Z,33.67
2024-05-09T17:28:05.244Z,30.65
2024-05-09T17:30:36.449Z,34.15
2024-05-09T17:33:06.495Z,33.10
2024-05-09T17:35:34.017Z,33.90
2024-05-09T17:38:01.720Z,31.38
2024-05-09T17:40:33.740Z,32.90
2024-05-09T17:43:04.433Z,34.33
2024-05-09T17:45:32.683Z,36.47
2024-05-09T17:48:01.710Z,33.10
2024-05-09T17:50:35.511Z,36.00
2024-05-09T17:53:05.109Z,37.58
2024-05-09T17:55:32.801Z,36.25
2024-05-09T17:58:00.618Z,40.20
2024-05-09T18:00:36.578Z,33.30
2024-05-09T18:03:07.673Z,38.67
2024-05-09T18:05:38.476Z,39.25
2024-05-09T18:08:06.908Z,37.03
2024-05-09T18:10:38.103Z,42.63
2024-05-09T18:13:08.348Z,40.10
2024-05-09T18:15:36.207Z,38.83
2024-05-09T18:18:04.173Z,41.17
2024-05-09T18:20:40.363Z,40.83
2024-05-09T18:23:13.143Z,42.88
2024-05-09T18:25:40.649Z,37.53
2024-05-09T18:28:08.045Z,41.30
2024-05-09T18:30:36.942Z,39.45
2024-05-09T18:33:07.053Z,41.30
2024-05-09T18:35:35.856Z,44.58
2024-05-09T18:38:03.517Z,40.10
2024-05-09T18:40:34.913Z,39.00
2024-05-09T18:43:06.459Z,42.10
2024-05-09T18:45:35.692Z,38.88
2024-05-09T18:48:05.126Z,42.05
2024-05-09T18:50:37.540Z,40.67
2024-05-09T18:53:07.339Z,44.08
2024-05-09T18:55:35.749Z,47.40
2024-05-09T18:58:04.054Z,45.53
2024-05-09T19:00:35.970Z,40.22
2024-05-09T19:03:11.076Z,43.75
2024-05-09T19:05:41.008Z,44.58
2024-05-09T19:08:09.113Z,44.20
2024-05-09T19:10:37.586Z,48.13
2024-05-09T19:13:10.417Z,45.50
2024-05-09T19:15:53.725Z,44.67
2024-05-09T19:18:21.890Z,41.42
2024-05-09T19:20:49.418Z,45.55
2024-05-09T19:23:16.724Z,43.90
2024-05-09T19:25:48.364Z,44.70
2024-05-09T19:28:15.620Z,48.92
2024-05-09T19:30:43.327Z,44.17
2024-05-09T19:33:13.204Z,45.83
2024-05-09T19:35:41.445Z,43.65
2024-05-09T19:38:08.699Z,42.47
2024-05-09T19:40:36.313Z,42.13
2024-05-09T19:43:04.871Z,42.55
2024-05-09T19:45:34.030Z,45.47
2024-05-09T19:48:03.120Z,44.60
2024-05-09T19:50:37.391Z,50.33
2024-05-09T19:53:10.398Z,42.10
2024-05-09T19:55:38.269Z,46.67
2024-05-09T19:58:08.734Z,42.35
2024-05-09T20:00:44.821Z,42.80
2024-05-09T20:03:13.330Z,42.45
2024-05-09T20:05:42.568Z,43.55
2024-05-09T20:08:09.978Z,43.45
2024-05-09T20:10:37.572Z,41.95
2024-05-09T20:13:06.761Z,45.58
2024-05-09T20:15:35.900Z,47.70
2024-05-09T20:18:03.315Z,44.35
2024-05-09T20:20:37.567Z,50.20
2024-05-09T20:23:08.824Z,49.60
2024-05-09T20:25:36.151Z,43.55
2024-05-09T20:28:03.603Z,45.78
2024-05-09T20:30:33.157Z,47.17
2024-05-09T20:33:05.919Z,48.35
2024-05-09T20:35:34.732Z,51.15
2024-05-09T20:38:03.310Z,51.95
2024-05-09T20:40:35.241Z,51.47
2024-05-09T20:43:06.111Z,49.47
2024-05-09T20:45:34.166Z,51.30
2024-05-09T20:48:01.976Z,50.38
2024-05-09T20:50:37.155Z,52.50
2024-05-09T20:53:15.168Z,51.85
2024-05-09T20:55:43.944Z,54.42
2024-05-09T20:58:12.171Z,48.08
2024-05-09T21:00:43.254Z,44.03
2024-05-09T21:03:13.595Z,49.03
2024-05-09T21:05:42.686Z,51.40
2024-05-09T21:08:10.121Z,46.78
2024-05-09T21:10:37.987Z,51.30
2024-05-09T21:13:06.614Z,52.80
2024-05-09T21:15:36.124Z,42.15
2024-05-09T21:18:04.088Z,44.15
2024-05-09T21:20:33.428Z,46.88
2024-05-09T21:23:01.813Z,47.80
2024-05-09T21:25:29.542Z,52.38
2024-05-09T21:27:56.960Z,48.10
2024-05-09T21:32:54.586Z,58.05
2024-05-09T21:35:21.908Z,47.25
2024-05-09T21:37:49.181Z,55.30
2024-05-09T21:40:26.646Z,52.63
2024-05-09T21:43:00.413Z,53.53
2024-05-09T21:45:27.851Z,51.72
2024-05-09T21:47:55.391Z,45.15
2024-05-09T21:50:28.528Z,52.30
2024-05-09T21:53:03.828Z,49.65
2024-05-09T21:55:31.868Z,51.72
2024-05-09T21:57:59.182Z,48.45
2024-05-09T22:00:34.558Z,54.70
2024-05-09T22:03:05.036Z,51.03
2024-05-09T22:05:32.750Z,47.33
2024-05-09T22:08:00.203Z,54.97
2024-05-09T22:10:33.716Z,51.60
2024-05-09T22:13:03.563Z,56.10
2024-05-09T22:15:33.609Z,51.47
2024-05-09T22:18:01.072Z,59.05
2024-05-09T22:20:34.420Z,52.58
2024-05-09T22:23:05.436Z,50.35
2024-05-09T22:25:33.090Z,55.10
2024-05-09T22:28:01.377Z,54.33
2024-05-09T22:30:35.928Z,50.40
2024-05-09T22:33:07.144Z,52.00
2024-05-09T22:35:34.728Z,42.80
2024-05-09T22:38:03.072Z,51.92
2024-05-09T22:40:39.095Z,44.03
2024-05-09T22:43:14.174Z,43.22
2024-05-09T22:45:41.689Z,49.10
2024-05-09T22:48:09.511Z,49.97
2024-05-09T22:50:37.014Z,51.17
2024-05-09T22:53:04.359Z,47.63
2024-05-09T22:55:31.633Z,57.67
2024-05-09T22:57:58.927Z,48.70
2024-05-09T23:00:31.293Z,48.35
2024-05-09T23:03:03.351Z,51.50
2024-05-09T23:05:32.493Z,44.78
2024-05-09T23:08:00.947Z,45.95
2024-05-09T23:10:35.444Z,46.72
2024-05-09T23:13:04.885Z,47.03
2024-05-09T23:15:32.392Z,45.33
2024-05-09T23:17:59.892Z,53.08
2024-05-09T23:20:36.056Z,49.90
2024-05-09T23:23:10.679Z,53.42
2024-05-09T23:25:39.005Z,54.42
2024-05-09T23:28:06.681Z,51.50
2024-05-09T23:30:38.483Z,48.53
2024-05-09T23:33:08.579Z,49.15
2024-05-09T23:35:36.208Z,47.90
2024-05-09T23:38:03.646Z,57.45
2024-05-09T23:40:38.308Z,53.25
2024-05-09T23:43:08.602Z,52.35
2024-05-09T23:45:36.398Z,50.23
2024-05-09T23:48:04.036Z,51.42
2024-05-09T23:50:36.057Z,50.10
2024-05-09T23:53:06.686Z,52.80
2024-05-09T23:55:35.100Z,50.83
2024-05-09T23:58:02.444Z,48.90
